Time;durP1;ratioP1;P1;durP2;ratioP2;P2;SDS_P1;SDS_P2;PMS_P1;PMS_P2;Temp;Humidity;BMP_temperature;BMP_pressure;BME280_temperature;BME280_humidity;BME280_pressure;Samples;Min_cycle;Max_cycle;Signal;HPM_P1;HPM_P2
2023/01/18 09:21:52;;;;;;;7.78;1.52;;;;;;;19.18;100.00;100171.66;2560406;54;52160;-58
2023/01/18 09:24:22;;;;;;;4.88;0.63;;;;;;;19.16;100.00;100171.84;2623401;47;20157;-53
2023/01/18 09:26:53;;;;;;;1.27;0.93;;;;;;;19.14;100.00;100160.66;2623792;54;20149;-57
2023/01/18 09:29:23;;;;;;;4.55;0.63;;;;;;;19.00;100.00;100161.28;2623642;54;20167;-56
2023/01/18 09:31:54;;;;;;;2.92;2.38;;;;;;;19.16;100.00;100177.13;2623008;54;20432;-57
2023/01/18 09:34:25;;;;;;;5.82;1.00;;;;;;;19.07;100.00;100175.44;2623426;54;20184;-56
2023/01/18 09:36:57;;;;;;;8.32;1.17;;;;;;;19.24;100.00;100151.81;2623558;47;20157;-57
2023/01/18 09:39:28;;;;;;;2.08;1.73;;;;;;;19.31;100.00;100143.09;2623678;47;20137;-58
2023/01/18 09:42:06;;;;;;;4.15;1.63;;;;;;;19.38;100.00;100156.47;2623506;47;20156;-58
2023/01/18 09:44:40;;;;;;;3.78;1.63;;;;;;;19.36;100.00;100148.72;2623852;39;20347;-59
2023/01/18 09:47:19;;;;;;;9.63;2.88;;;;;;;19.48;100.00;100155.34;2623995;39;20306;-63
2023/01/18 09:49:56;;;;;;;7.22;1.00;;;;;;;19.73;100.00;100150.94;2623617;54;20208;-60
2023/01/18 09:52:39;;;;;;;6.72;1.67;;;;;;;19.99;100.00;100156.81;2623446;47;20142;-57
2023/01/18 09:55:20;;;;;;;6.97;1.25;;;;;;;20.04;100.00;100145.81;2623570;51;20138;-56
2023/01/18 09:58:07;;;;;;;8.10;2.38;;;;;;;19.52;100.00;100143.50;2623564;47;20149;-59
2023/01/18 10:00:42;;;;;;;7.53;2.08;;;;;;;19.54;100.00;100130.16;2623426;54;20137;-56
2023/01/18 10:03:20;;;;;;;4.40;1.67;;;;;;;19.80;100.00;100124.75;2623562;47;20145;-56
2023/01/18 10:06:07;;;;;;;3.10;1.35;;;;;;;19.83;100.00;100119.97;2623547;54;20164;-59
2023/01/18 10:08:52;;;;;;;3.83;1.67;;;;;;;20.14;100.00;100116.66;2623789;47;20157;-55
2023/01/18 10:11:28;;;;;;;6.70;1.73;;;;;;;20.01;100.00;100098.75;2623521;47;20407;-59
2023/01/18 10:14:04;;;;;;;2.47;0.77;;;;;;;19.93;100.00;100093.47;2623613;46;20141;-56
2023/01/18 10:16:37;;;;;;;4.00;2.10;;;;;;;19.75;100.00;100083.13;2623667;39;20492;-55
2023/01/18 10:19:17;;;;;;;17.55;1.70;;;;;;;19.67;100.00;100133.13;2623486;47;20142;-58
2023/01/18 10:21:56;;;;;;;4.50;1.98;;;;;;;19.71;100.00;100123.94;2623451;47;20177;-58
2023/01/18 10:24:41;;;;;;;7.35;1.48;;;;;;;19.66;100.00;100136.75;2623591;47;20144;-58
2023/01/18 10:27:26;;;;;;;9.65;0.88;;;;;;;19.70;100.00;100132.00;2623221;47;20230;-60
2023/01/18 10:30:09;;;;;;;8.02;1.35;;;;;;;19.73;100.00;100136.94;2623421;54;20152;-56
2023/01/18 10:32:44;;;;;;;11.68;2.30;;;;;;;19.81;100.00;100152.72;2623369;54;20160;-54
2023/01/18 10:35:24;;;;;;;7.15;1.85;;;;;;;19.68;100.00;100141.88;2623412;54;20141;-56
2023/01/18 10:37:58;;;;;;;6.57;1.60;;;;;;;19.69;100.00;100144.34;2624281;54;20138;-55
2023/01/18 10:40:32;;;;;;;1.13;0.50;;;;;;;19.87;100.00;100149.44;2624271;47;20145;-59
2023/01/18 10:43:03;;;;;;;7.88;1.10;;;;;;;20.02;100.00;100145.97;2624396;54;20679;-56
2023/01/18 10:45:36;;;;;;;12.52;2.25;;;;;;;19.94;100.00;100132.78;2624086;54;20142;-59
2023/01/18 10:48:27;;;;;;;12.75;1.90;;;;;;;19.78;100.00;100148.59;2624066;54;20414;-58
2023/01/18 10:51:00;;;;;;;2.67;0.50;;;;;;;19.63;100.00;100129.19;2623999;46;20148;-56
2023/01/18 10:53:34;;;;;;;3.40;1.55;;;;;;;19.61;100.00;100152.25;2624170;54;20166;-56
2023/01/18 10:56:09;;;;;;;6.68;2.30;;;;;;;19.52;100.00;100145.31;2623963;54;20410;-57
2023/01/18 10:58:47;;;;;;;1.95;1.13;;;;;;;19.61;100.00;100155.69;2624133;54;20204;-61
2023/01/18 11:01:21;;;;;;;7.00;3.00;;;;;;;19.31;100.00;100155.44;2624110;47;20137;-58
2023/01/18 11:03:54;;;;;;;4.20;1.75;;;;;;;19.46;100.00;100145.94;2624045;47;20395;-56
2023/01/18 11:06:25;;;;;;;5.35;1.05;;;;;;;19.57;100.00;100171.97;2624009;47;20141;-59
2023/01/18 11:08:55;;;;;;;3.92;1.85;;;;;;;19.71;100.00;100179.22;2624056;47;20157;-56
2023/01/18 11:14:25;;;;;;;7.15;4.03;;;;;;;19.81;100.00;100169.34;2624012;54;20137;-57
2023/01/18 11:17:10;;;;;;;9.65;2.50;;;;;;;19.67;100.00;100172.63;2624037;47;20157;-59
2023/01/18 11:19:41;;;;;;;6.65;1.95;;;;;;;19.81;100.00;100190.41;2623990;54;20153;-58
2023/01/18 11:22:14;;;;;;;8.40;1.30;;;;;;;19.74;100.00;100193.88;2623809;51;20173;-56
2023/01/18 11:24:45;;;;;;;8.23;2.05;;;;;;;19.51;100.00;100172.59;2624146;54;20142;-58
2023/01/18 11:27:24;;;;;;;6.75;2.00;;;;;;;19.56;100.00;100165.06;2624436;39;20337;-55
2023/01/18 11:29:54;;;;;;;6.40;2.58;;;;;;;19.45;100.00;100189.06;2624025;54;20142;-58
2023/01/18 11:32:27;;;;;;;2.90;2.08;;;;;;;19.25;100.00;100172.69;2623932;46;20203;-56
2023/01/18 11:35:00;;;;;;;6.60;1.55;;;;;;;19.28;100.00;100167.13;2623897;54;20137;-59
2023/01/18 11:37:33;;;;;;;3.55;2.17;;;;;;;19.14;100.00;100168.53;2624008;51;20164;-58
2023/01/18 11:40:28;;;;;;;6.47;2.53;;;;;;;19.11;100.00;100133.84;2623874;53;20406;-61
2023/01/18 11:43:04;;;;;;;3.67;0.85;;;;;;;18.97;100.00;100147.63;2623966;54;20248;-54
2023/01/18 11:45:39;;;;;;;10.25;2.05;;;;;;;19.05;100.00;100156.38;2623859;47;20163;-60
2023/01/18 11:48:15;;;;;;;3.65;1.10;;;;;;;19.17;100.00;100144.56;2623855;54;20152;-60
2023/01/18 11:50:51;;;;;;;9.60;1.55;;;;;;;19.11;100.00;100150.47;2623937;54;20152;-56
2023/01/18 11:53:36;;;;;;;2.90;0.88;;;;;;;19.20;100.00;100153.13;2624054;54;20236;-60
2023/01/18 11:56:12;;;;;;;3.20;1.00;;;;;;;19.07;100.00;100159.66;2623975;54;20157;-60
2023/01/18 11:58:45;;;;;;;5.07;2.00;;;;;;;18.96;100.00;100159.94;2623892;47;20161;-58
2023/01/18 12:01:45;;;;;;;4.32;1.15;;;;;;;18.99;100.00;100166.69;2623801;54;20153;-57
2023/01/18 12:04:26;;;;;;;0.17;0.17;;;;;;;19.10;100.00;100163.75;2623746;54;20160;-55
2023/01/18 12:07:11;;;;;;;7.60;2.38;;;;;;;19.08;100.00;100160.47;2623680;54;20156;-60
2023/01/18 12:09:47;;;;;;;2.22;2.03;;;;;;;19.10;100.00;100169.00;2623875;54;20148;-57
2023/01/18 12:12:33;;;;;;;7.25;4.18;;;;;;;18.92;100.00;100174.41;2623781;54;20137;-60
2023/01/18 12:15:22;;;;;;;3.05;0.88;;;;;;;19.00;100.00;100182.31;2623839;54;20157;-56
2023/01/18 12:18:05;;;;;;;2.58;0.60;;;;;;;19.12;100.00;100181.03;2623557;54;20144;-55
2023/01/18 12:20:51;;;;;;;4.35;1.33;;;;;;;19.09;100.00;100157.69;2623520;54;20173;-59
2023/01/18 12:23:57;;;;;;;3.05;2.58;;;;;;;19.13;100.00;100173.97;2624015;39;20291;-54
2023/01/18 12:26:48;;;;;;;0.05;0.05;;;;;;;19.04;100.00;100152.09;2623711;54;20407;-59
2023/01/18 12:29:35;;;;;;;2.30;0.35;;;;;;;18.84;100.00;100148.06;2623032;47;20165;-59
2023/01/18 12:32:19;;;;;;;7.40;3.08;;;;;;;18.82;100.00;100143.94;2622819;54;20154;-59
2023/01/18 12:35:01;;;;;;;8.23;0.93;;;;;;;18.95;100.00;100174.06;2622915;47;20161;-56
2023/01/18 12:37:46;;;;;;;9.07;1.25;;;;;;;18.95;100.00;100191.66;2622874;54;20153;-55
2023/01/18 12:40:40;;;;;;;12.50;2.15;;;;;;;18.82;100.00;100175.47;2623065;47;20148;-59
2023/01/18 12:43:25;;;;;;;4.55;1.25;;;;;;;18.86;100.00;100188.16;2622858;54;20157;-57
2023/01/18 12:46:04;;;;;;;24.95;1.48;;;;;;;18.78;100.00;100189.91;2622752;47;20237;-56
2023/01/18 12:48:46;;;;;;;5.35;1.98;;;;;;;18.68;100.00;100195.31;2622890;54;20145;-54
2023/01/18 12:51:19;;;;;;;6.78;1.55;;;;;;;18.62;100.00;100182.78;2623036;54;20142;-60
2023/01/18 12:53:53;;;;;;;2.47;2.38;;;;;;;18.74;100.00;100188.63;2623690;54;20161;-57
2023/01/18 12:56:27;;;;;;;3.90;1.52;;;;;;;18.74;100.00;100202.56;2623641;54;20153;-55
2023/01/18 12:58:59;;;;;;;5.15;1.58;;;;;;;18.73;100.00;100182.53;2623755;54;20144;-56
2023/01/18 13:01:37;;;;;;;13.70;1.80;;;;;;;18.65;100.00;100169.34;2623701;47;20466;-54
2023/01/18 13:04:19;;;;;;;7.95;2.28;;;;;;;18.64;100.00;100178.22;2623766;47;20145;-57
2023/01/18 13:06:53;;;;;;;4.40;2.17;;;;;;;18.54;100.00;100173.06;2624413;31;20424;-58
2023/01/18 13:09:32;;;;;;;2.25;1.23;;;;;;;18.50;100.00;100176.94;2623752;54;20176;-54
2023/01/18 13:12:04;;;;;;;0.60;0.57;;;;;;;18.52;100.00;100196.03;2623675;54;20387;-55
2023/01/18 13:14:40;;;;;;;1.40;0.77;;;;;;;18.45;100.00;100194.16;2623657;54;20437;-56
2023/01/18 13:17:17;;;;;;;11.50;1.35;;;;;;;18.42;100.00;100199.72;2624019;54;20161;-57
2023/01/18 13:19:57;;;;;;;10.80;1.92;;;;;;;18.32;100.00;100160.44;2623888;54;20254;-59
2023/01/18 13:22:36;;;;;;;3.42;1.70;;;;;;;18.30;100.00;100175.50;2623610;54;20163;-55
2023/01/18 13:25:25;;;;;;;3.15;1.60;;;;;;;18.16;100.00;100169.03;2623678;47;20137;-56
2023/01/18 13:28:00;;;;;;;1.35;0.70;;;;;;;18.19;100.00;100152.13;2623580;54;20418;-59
2023/01/18 13:30:33;;;;;;;4.78;1.65;;;;;;;18.17;100.00;100175.91;2623533;54;20153;-55
2023/01/18 13:33:15;;;;;;;8.32;1.10;;;;;;;18.25;100.00;100156.78;2623505;39;20693;-58
2023/01/18 13:35:56;;;;;;;12.40;2.00;;;;;;;18.16;100.00;100171.66;2623628;54;20138;-56
2023/01/18 13:38:28;;;;;;;8.45;2.85;;;;;;;18.25;100.00;100178.59;2623414;54;20138;-58
2023/01/18 13:41:12;;;;;;;6.45;1.52;;;;;;;18.29;100.00;100188.81;2623696;54;20177;-56
2023/01/18 13:44:03;;;;;;;5.38;1.65;;;;;;;18.12;100.00;100188.69;2623517;54;20149;-56
2023/01/18 13:46:37;;;;;;;13.30;3.25;;;;;;;17.98;100.00;100186.59;2624350;31;20415;-57
2023/01/18 13:49:36;;;;;;;10.02;2.00;;;;;;;18.11;100.00;100191.47;2623498;54;20169;-56
2023/01/18 13:52:34;;;;;;;5.65;1.23;;;;;;;18.14;100.00;100204.28;2623100;47;20151;-58
2023/01/18 13:55:22;;;;;;;4.78;2.33;;;;;;;18.01;100.00;100196.00;2970785;36;223074;-59
2023/01/18 13:57:56;;;;;;;4.32;1.13;;;;;;;17.96;100.00;100201.69;2535211;36;5014852;-57
2023/01/18 14:00:28;;;;;;;3.40;1.08;;;;;;;17.99;100.00;100205.81;2623587;47;20152;-57
2023/01/18 14:03:06;;;;;;;4.28;1.25;;;;;;;17.84;100.00;100210.78;2623957;39;20310;-57
2023/01/18 14:05:39;;;;;;;3.15;0.55;;;;;;;17.96;100.00;100220.06;2623368;47;20161;-59
2023/01/18 14:08:22;;;;;;;18.45;2.88;;;;;;;17.99;100.00;100245.19;2623555;54;20158;-57
2023/01/18 14:10:54;;;;;;;11.25;1.80;;;;;;;17.96;100.00;100246.31;2623549;51;20241;-55
2023/01/18 14:13:57;;;;;;;3.38;1.05;;;;;;;18.03;100.00;100239.47;2623443;46;20481;-55
2023/01/18 14:16:30;;;;;;;1.13;1.08;;;;;;;18.07;100.00;100266.25;2622692;54;20148;-58
2023/01/18 14:19:06;;;;;;;3.00;1.27;;;;;;;18.05;100.00;100255.09;2623487;54;20157;-54
2023/01/18 14:21:55;;;;;;;4.47;2.03;;;;;;;17.92;100.00;100254.63;2623174;54;20458;-59
2023/01/18 14:24:45;;;;;;;10.38;3.55;;;;;;;17.78;100.00;100269.91;2623548;54;20137;-60
2023/01/18 14:27:21;;;;;;;5.50;0.93;;;;;;;18.02;100.00;100271.94;2623565;54;20193;-56
2023/01/18 14:29:55;;;;;;;6.22;1.85;;;;;;;17.88;100.00;100267.25;2622249;54;20265;-59
2023/01/18 14:32:28;;;;;;;7.10;1.83;;;;;;;17.86;100.00;100239.47;2623250;54;20153;-56
2023/01/18 14:35:01;;;;;;;9.73;1.30;;;;;;;17.76;100.00;100263.19;2623428;54;20164;-53
2023/01/18 14:37:33;;;;;;;2.25;1.10;;;;;;;17.64;100.00;100262.56;2623173;47;20482;-61
2023/01/18 14:40:18;;;;;;;0.70;0.70;;;;;;;17.74;100.00;100280.84;2623579;47;20137;-60
2023/01/18 14:42:54;;;;;;;14.25;2.55;;;;;;;17.78;100.00;100271.72;2623010;54;20157;-56
2023/01/18 14:45:28;;;;;;;1.65;0.65;;;;;;;17.67;100.00;100282.44;2622936;54;20208;-56
2023/01/18 14:48:01;;;;;;;4.53;1.40;;;;;;;17.58;100.00;100265.75;2623784;47;20193;-56
2023/01/18 14:50:34;;;;;;;4.20;1.52;;;;;;;17.49;100.00;100292.03;2623503;47;20157;-57
2023/01/18 14:53:06;;;;;;;9.10;3.53;;;;;;;17.60;100.00;100276.13;2624772;39;20337;-59
2023/01/18 14:55:39;;;;;;;3.92;2.28;;;;;;;17.48;100.00;100266.78;2624047;54;20201;-59
2023/01/18 14:58:16;;;;;;;5.57;2.10;;;;;;;17.38;100.00;100285.19;2624044;54;20137;-59
2023/01/18 15:00:52;;;;;;;6.82;2.13;;;;;;;17.37;100.00;100277.47;2623889;54;20406;-55
2023/01/18 15:03:25;;;;;;;3.05;1.60;;;;;;;17.43;100.00;100288.19;2624152;54;20156;-58
2023/01/18 15:06:01;;;;;;;8.75;1.45;;;;;;;17.38;100.00;100295.66;2623973;47;20177;-57
2023/01/18 15:08:35;;;;;;;9.93;2.25;;;;;;;17.36;100.00;100281.06;2624086;46;20152;-56
2023/01/18 15:11:09;;;;;;;5.35;1.55;;;;;;;17.23;100.00;100282.22;2624021;47;20431;-55
2023/01/18 15:13:48;;;;;;;12.65;1.67;;;;;;;17.25;100.00;100310.94;2623199;54;20165;-54
2023/01/18 15:16:21;;;;;;;3.58;1.05;;;;;;;17.26;100.00;100283.72;2623605;47;20148;-55
2023/01/18 15:18:53;;;;;;;5.60;1.88;;;;;;;17.29;100.00;100284.25;2623787;54;20146;-55
2023/01/18 15:21:25;;;;;;;16.88;2.33;;;;;;;17.30;100.00;100316.53;2623493;54;20207;-59
2023/01/18 15:24:03;;;;;;;7.07;2.15;;;;;;;17.35;100.00;100316.94;2624286;39;20303;-57
2023/01/18 15:26:44;;;;;;;11.00;1.40;;;;;;;17.16;100.00;100296.88;2623777;47;20163;-56
2023/01/18 15:29:19;;;;;;;3.97;1.63;;;;;;;17.14;100.00;100316.31;2623678;54;20133;-58
2023/01/18 15:31:52;;;;;;;1.70;0.73;;;;;;;17.18;100.00;100331.63;2623773;54;20137;-60
2023/01/18 15:34:30;;;;;;;2.28;1.60;;;;;;;17.11;100.00;100343.66;2623985;54;20225;-57
2023/01/18 15:37:03;;;;;;;4.60;0.95;;;;;;;17.20;100.00;100337.56;2623810;54;20156;-55
2023/01/18 15:39:34;;;;;;;3.88;2.47;;;;;;;17.12;100.00;100334.84;2624215;39;20309;-54
2023/01/18 15:42:11;;;;;;;2.60;1.45;;;;;;;17.04;100.00;100345.22;2623956;47;20232;-53
2023/01/18 15:44:47;;;;;;;1.52;1.15;;;;;;;16.94;100.00;100367.97;2622824;51;20160;-57
2023/01/18 15:47:24;;;;;;;3.88;1.10;;;;;;;16.93;100.00;100350.59;2623966;47;20137;-52
2023/01/18 15:49:58;;;;;;;23.80;2.40;;;;;;;16.90;100.00;100371.84;2623757;47;20145;-58
2023/01/18 15:52:43;;;;;;;7.75;2.17;;;;;;;17.02;100.00;100389.06;2623974;47;20185;-57
2023/01/18 15:55:24;;;;;;;9.40;1.52;;;;;;;16.91;100.00;100404.97;2623950;54;20163;-53
2023/01/18 15:58:01;;;;;;;7.38;1.45;;;;;;;16.90;100.00;100398.06;2624039;47;20137;-57
2023/01/18 16:00:37;;;;;;;12.00;2.33;;;;;;;16.85;100.00;100392.41;2623787;47;20408;-56
2023/01/18 16:03:07;;;;;;;5.28;2.05;;;;;;;16.87;100.00;100390.47;2623852;54;20153;-56
2023/01/18 16:05:38;;;;;;;9.63;2.72;;;;;;;16.91;100.00;100373.50;2623134;54;20157;-54
2023/01/18 16:08:17;;;;;;;3.08;1.40;;;;;;;16.88;100.00;100378.22;2623620;39;20334;-57
2023/01/18 16:10:54;;;;;;;10.27;4.07;;;;;;;16.81;100.00;100386.63;2623737;54;20213;-59
2023/01/18 16:13:32;;;;;;;11.75;2.30;;;;;;;16.75;100.00;100387.19;2623710;54;20149;-59
2023/01/18 16:16:12;;;;;;;7.45;1.17;;;;;;;16.80;100.00;100407.72;2623724;47;20208;-56
2023/01/18 16:18:45;;;;;;;14.90;3.20;;;;;;;16.84;100.00;100380.28;2623777;54;20185;-56
2023/01/18 16:21:22;;;;;;;4.10;1.35;;;;;;;16.82;100.00;100385.66;2623675;47;20192;-53
2023/01/18 16:23:55;;;;;;;7.80;2.55;;;;;;;16.77;100.00;100376.56;2623858;47;20137;-60
2023/01/18 16:26:31;;;;;;;6.00;0.95;;;;;;;16.83;100.00;100389.94;2623855;54;20176;-54
2023/01/18 16:29:12;;;;;;;5.57;1.77;;;;;;;16.94;100.00;100383.72;2624636;54;20160;-58
2023/01/18 16:31:44;;;;;;;9.38;2.67;;;;;;;16.79;100.00;100398.22;2624961;39;20323;-55
2023/01/18 16:34:21;;;;;;;9.77;2.00;;;;;;;16.70;100.00;100393.78;2624490;46;20145;-57
2023/01/18 16:36:52;;;;;;;8.68;1.90;;;;;;;16.69;100.00;100376.44;2624624;54;20138;-60
2023/01/18 16:39:23;;;;;;;6.00;1.92;;;;;;;16.77;100.00;100393.09;2624502;51;20142;-53
2023/01/18 16:41:58;;;;;;;12.25;3.33;;;;;;;16.73;100.00;100396.97;2624299;54;20160;-57
2023/01/18 16:44:30;;;;;;;5.75;0.95;;;;;;;16.79;100.00;100382.50;2624473;54;20141;-57
2023/01/18 16:47:01;;;;;;;6.05;2.78;;;;;;;16.84;100.00;100391.59;2624547;54;20153;-55
2023/01/18 16:49:31;;;;;;;12.65;1.60;;;;;;;16.78;100.00;100380.81;2624369;54;20185;-56
2023/01/18 16:52:01;;;;;;;6.65;1.90;;;;;;;16.71;100.00;100382.34;2624293;47;20241;-56
2023/01/18 16:54:31;;;;;;;4.43;2.33;;;;;;;16.63;100.00;100396.16;2624858;39;20382;-56
2023/01/18 16:57:01;;;;;;;9.98;1.60;;;;;;;16.65;100.00;100399.44;2624563;54;20141;-55
2023/01/18 16:59:34;;;;;;;2.28;1.35;;;;;;;16.67;100.00;100413.25;2624041;54;20208;-57
2023/01/18 17:02:04;;;;;;;1.98;0.90;;;;;;;16.71;100.00;100419.03;2624314;54;20138;-60
2023/01/18 17:04:34;;;;;;;5.95;1.38;;;;;;;16.62;100.00;100425.94;2624215;54;20159;-59
2023/01/18 17:07:05;;;;;;;6.22;2.22;;;;;;;16.65;100.00;100438.75;2623948;54;20157;-58
2023/01/18 17:09:37;;;;;;;5.68;2.13;;;;;;;16.62;100.00;100431.16;2624438;54;20236;-55
2023/01/18 17:12:17;;;;;;;2.40;1.38;;;;;;;16.68;100.00;100435.03;2624407;39;20340;-58
2023/01/18 17:14:50;;;;;;;6.45;1.48;;;;;;;16.67;100.00;100436.81;2623260;54;20422;-57
2023/01/18 17:17:20;;;;;;;2.85;1.38;;;;;;;16.55;100.00;100429.19;2623001;54;20168;-55
2023/01/18 17:19:50;;;;;;;5.60;1.35;;;;;;;16.62;100.00;100467.84;2623049;54;20157;-58
2023/01/18 17:22:21;;;;;;;1.20;0.88;;;;;;;16.66;100.00;100456.13;2623043;54;20160;-60
2023/01/18 17:24:53;;;;;;;5.32;1.45;;;;;;;16.57;100.00;100462.16;2623154;54;20173;-58
2023/01/18 17:27:23;;;;;;;6.00;1.13;;;;;;;16.60;100.00;100459.31;2623486;54;20152;-52
2023/01/18 17:29:56;;;;;;;6.22;1.90;;;;;;;16.57;100.00;100469.22;2624373;47;20471;-58
2023/01/18 17:32:26;;;;;;;1.35;0.82;;;;;;;16.56;100.00;100463.13;2624358;47;20134;-52
2023/01/18 17:35:18;;;;;;;15.57;2.35;;;;;;;16.61;100.00;100453.06;2623963;39;20310;-54
2023/01/18 17:37:49;;;;;;;5.93;1.63;;;;;;;16.65;100.00;100456.28;2624337;54;20137;-54
2023/01/18 17:40:29;;;;;;;6.03;1.95;;;;;;;16.67;100.00;100457.78;2624263;47;20217;-57
2023/01/18 17:43:12;;;;;;;0.95;0.50;;;;;;;16.65;100.00;100472.78;2624415;54;20138;-56
2023/01/18 17:45:48;;;;;;;3.95;1.77;;;;;;;16.57;100.00;100470.03;2624210;54;20453;-58
2023/01/18 17:48:30;;;;;;;4.97;1.30;;;;;;;16.56;100.00;100476.22;2623907;54;20168;-57
2023/01/18 17:51:00;;;;;;;5.57;2.00;;;;;;;16.57;100.00;100477.88;2624453;39;20312;-58
2023/01/18 17:53:30;;;;;;;8.90;1.60;;;;;;;16.61;100.00;100468.00;2623990;54;20245;-59
2023/01/18 17:56:00;;;;;;;1.63;1.10;;;;;;;16.68;100.00;100475.16;2624396;54;20153;-58
2023/01/18 17:58:31;;;;;;;0.77;0.73;;;;;;;16.58;100.00;100444.66;2624232;54;20144;-57
2023/01/18 18:01:11;;;;;;;4.45;1.60;;;;;;;16.63;100.00;100466.88;2624350;54;20142;-55
2023/01/18 18:03:44;;;;;;;8.27;3.13;;;;;;;16.58;100.00;100455.97;2624000;51;20237;-57
2023/01/18 18:06:14;;;;;;;4.55;0.70;;;;;;;16.66;100.00;100473.63;2624021;54;20157;-57
2023/01/18 18:08:59;;;;;;;4.80;0.90;;;;;;;16.62;100.00;100459.16;2623946;54;20217;-57
2023/01/18 18:11:30;;;;;;;1.05;0.40;;;;;;;16.61;100.00;100481.88;2623989;39;20213;-57
2023/01/18 18:14:00;;;;;;;4.00;1.67;;;;;;;16.59;100.00;100483.00;2624159;54;20205;-59
2023/01/18 18:16:34;;;;;;;5.38;1.67;;;;;;;16.57;100.00;100471.84;2624292;54;20138;-56
2023/01/18 18:19:13;;;;;;;4.38;0.85;;;;;;;16.56;100.00;100472.78;2624330;51;20144;-59
2023/01/18 18:21:44;;;;;;;1.10;1.00;;;;;;;16.55;100.00;100492.06;2624271;47;20453;-55
2023/01/18 18:24:14;;;;;;;6.85;2.53;;;;;;;16.59;100.00;100486.44;2624282;54;20134;-58
2023/01/18 18:26:44;;;;;;;4.05;1.50;;;;;;;16.49;100.00;100493.41;2624661;54;20149;-56
2023/01/18 18:29:14;;;;;;;17.30;1.05;;;;;;;16.59;100.00;100483.84;2624621;54;20140;-56
2023/01/18 18:31:47;;;;;;;1.67;0.80;;;;;;;16.60;100.00;100479.44;2624352;47;20153;-55
2023/01/18 18:34:17;;;;;;;18.05;1.00;;;;;;;16.70;100.00;100496.81;2624231;54;20133;-54
2023/01/18 18:36:48;;;;;;;2.83;1.05;;;;;;;16.66;100.00;100507.69;2624235;54;20142;-54
2023/01/18 18:39:18;;;;;;;2.80;1.33;;;;;;;16.61;100.00;100507.28;2624100;54;20145;-53
2023/01/18 18:41:48;;;;;;;14.18;3.70;;;;;;;16.61;100.00;100496.81;2624261;54;20141;-57
2023/01/18 18:44:19;;;;;;;3.53;1.45;;;;;;;16.68;100.00;100487.44;2624465;39;20313;-58
2023/01/18 18:46:51;;;;;;;2.22;0.88;;;;;;;16.71;100.00;100510.72;2624658;39;20334;-59
2023/01/18 18:49:21;;;;;;;6.93;2.92;;;;;;;16.64;100.00;100512.25;2623847;54;20153;-55
2023/01/18 18:51:52;;;;;;;4.40;0.93;;;;;;;16.61;100.00;100528.25;2624083;54;20430;-54
2023/01/18 18:54:22;;;;;;;1.52;1.42;;;;;;;16.64;100.00;100517.47;2624105;54;20154;-59
2023/01/18 18:56:52;;;;;;;2.80;1.50;;;;;;;16.63;100.00;100500.09;2624225;54;20149;-60
2023/01/18 18:59:22;;;;;;;1.27;0.65;;;;;;;16.69;100.00;100520.53;2623964;47;20201;-57
2023/01/18 19:01:56;;;;;;;4.65;0.55;;;;;;;16.60;100.00;100516.09;2624198;54;20158;-54
2023/01/18 19:04:28;;;;;;;2.70;0.82;;;;;;;16.68;100.00;100509.22;2624462;39;20369;-56
2023/01/18 19:06:59;;;;;;;4.93;1.27;;;;;;;16.58;100.00;100484.78;2624592;39;20344;-55
2023/01/18 19:09:29;;;;;;;1.73;0.50;;;;;;;16.58;100.00;100510.97;2624080;54;20181;-58
2023/01/18 19:11:59;;;;;;;1.77;1.02;;;;;;;16.51;100.00;100503.78;2624016;54;20141;-56
2023/01/18 19:14:29;;;;;;;0.85;0.45;;;;;;;16.49;100.00;100509.13;2624022;51;20158;-52
2023/01/18 19:17:02;;;;;;;6.55;1.73;;;;;;;16.60;100.00;100455.84;2624164;54;20137;-55
2023/01/18 19:19:32;;;;;;;1.45;1.35;;;;;;;16.63;100.00;100505.34;2623842;54;20144;-53
2023/01/18 19:22:02;;;;;;;4.53;2.17;;;;;;;16.58;100.00;100497.88;2623978;54;20173;-60
2023/01/18 19:24:35;;;;;;;7.65;1.67;;;;;;;16.62;100.00;100524.63;2623914;54;20435;-55
2023/01/18 19:27:06;;;;;;;7.07;1.63;;;;;;;16.60;100.00;100510.84;2624358;39;20324;-56
2023/01/18 19:29:37;;;;;;;9.05;1.02;;;;;;;16.55;100.00;100498.13;2623863;54;20153;-55
2023/01/18 19:32:09;;;;;;;0.68;0.60;;;;;;;16.59;100.00;100512.66;2623783;54;20153;-56
2023/01/18 19:34:40;;;;;;;1.00;0.50;;;;;;;16.60;100.00;100516.94;2624286;39;20407;-57
2023/01/18 19:37:11;;;;;;;2.65;1.30;;;;;;;16.53;100.00;100534.09;2623803;54;20154;-58
2023/01/18 19:39:41;;;;;;;10.63;1.00;;;;;;;16.62;100.00;100522.00;2623912;47;20157;-56
2023/01/18 19:42:11;;;;;;;4.55;1.80;;;;;;;16.65;100.00;100504.22;2623852;54;20137;-55
2023/01/18 19:44:41;;;;;;;5.00;1.30;;;;;;;16.58;100.00;100528.50;2624191;39;20321;-57
2023/01/18 19:47:14;;;;;;;5.43;2.20;;;;;;;16.53;100.00;100530.66;2624327;39;20313;-55
2023/01/18 19:49:44;;;;;;;1.48;1.25;;;;;;;16.51;100.00;100543.06;2623874;54;20254;-59
2023/01/18 19:52:14;;;;;;;0.55;0.50;;;;;;;16.49;100.00;100535.31;2623728;54;20144;-60
2023/01/18 19:54:45;;;;;;;2.15;1.63;;;;;;;16.48;100.00;100538.94;2623857;54;20240;-54
2023/01/18 19:57:15;;;;;;;3.63;1.70;;;;;;;16.50;100.00;100502.09;2622792;54;20157;-57
2023/01/18 19:59:45;;;;;;;3.33;0.90;;;;;;;16.51;100.00;100517.69;2622939;54;20153;-57
2023/01/18 20:02:18;;;;;;;0.73;0.52;;;;;;;16.61;100.00;100521.19;2622853;47;20164;-57
2023/01/18 20:04:48;;;;;;;1.63;1.50;;;;;;;16.46;100.00;100534.75;2623203;54;20221;-58
2023/01/18 20:07:19;;;;;;;0.63;0.50;;;;;;;16.52;100.00;100518.53;2623213;51;20137;-60
2023/01/18 20:09:49;;;;;;;8.50;1.17;;;;;;;16.52;100.00;100526.38;2623141;54;20137;-59
2023/01/18 20:12:19;;;;;;;5.03;1.15;;;;;;;16.52;100.00;100513.28;2623085;54;20418;-57
2023/01/18 20:14:49;;;;;;;0.13;0.10;;;;;;;16.55;100.00;100503.38;2623359;52;20403;-58
2023/01/18 20:17:22;;;;;;;2.20;0.93;;;;;;;16.42;100.00;100473.97;2623300;39;20714;-60
2023/01/18 20:19:53;;;;;;;3.20;1.65;;;;;;;16.47;100.00;100469.16;2623053;54;20160;-60
2023/01/18 20:22:23;;;;;;;8.68;1.75;;;;;;;16.52;100.00;100492.34;2622997;51;20430;-57
2023/01/18 20:24:53;;;;;;;6.75;1.25;;;;;;;16.49;100.00;100448.09;2623176;54;20153;-60
2023/01/18 20:27:23;;;;;;;2.33;0.85;;;;;;;16.50;100.00;100436.63;2623364;39;20341;-59
2023/01/18 20:29:54;;;;;;;3.58;1.02;;;;;;;16.65;100.00;100492.94;2623211;54;20165;-59
2023/01/18 20:32:27;;;;;;;9.13;2.85;;;;;;;16.56;100.00;100512.06;2623010;54;20181;-58
2023/01/18 20:34:57;;;;;;;2.88;1.00;;;;;;;16.69;100.00;100495.13;2622992;54;20205;-55
2023/01/18 20:37:27;;;;;;;1.20;0.60;;;;;;;16.64;100.00;100541.06;2623033;54;20394;-59
2023/01/18 20:39:57;;;;;;;1.88;0.55;;;;;;;16.59;100.00;100543.25;2622931;54;20145;-58
2023/01/18 20:42:27;;;;;;;19.73;1.65;;;;;;;16.59;100.00;100535.38;2622974;54;20144;-52
2023/01/18 20:44:59;;;;;;;5.38;1.73;;;;;;;16.54;100.00;100553.25;2623067;51;20142;-52
2023/01/18 20:47:32;;;;;;;2.90;0.98;;;;;;;16.53;100.00;100559.47;2622627;54;20403;-57
2023/01/18 20:50:02;;;;;;;8.02;1.55;;;;;;;16.59;100.00;100558.97;2623144;54;20414;-56
2023/01/18 20:52:32;;;;;;;5.13;2.03;;;;;;;16.58;100.00;100549.44;2623414;39;20314;-54
2023/01/18 20:55:02;;;;;;;1.15;1.02;;;;;;;16.65;100.00;100568.91;2623320;39;20335;-58
2023/01/18 20:57:33;;;;;;;26.15;2.00;;;;;;;16.53;100.00;100562.09;2623164;54;20141;-57
2023/01/18 21:00:04;;;;;;;1.63;1.42;;;;;;;16.58;100.00;100580.88;2622949;54;20144;-55
2023/01/18 21:02:36;;;;;;;1.58;1.45;;;;;;;16.59;100.00;100577.31;2623933;54;20193;-58
2023/01/18 21:05:07;;;;;;;8.02;1.13;;;;;;;16.65;100.00;100564.47;2622869;54;20148;-59
2023/01/18 21:07:38;;;;;;;6.70;1.95;;;;;;;16.64;100.00;100562.00;2623005;54;20144;-60
2023/01/18 21:10:12;;;;;;;0.50;0.50;;;;;;;16.60;100.00;100586.81;2622291;47;20173;-55
2023/01/18 21:12:42;;;;;;;2.03;0.82;;;;;;;16.57;100.00;100592.34;2622720;54;20157;-60
2023/01/18 21:15:13;;;;;;;0.65;0.65;;;;;;;16.62;100.00;100592.75;2623409;54;20153;-55
2023/01/18 21:17:46;;;;;;;2.70;0.75;;;;;;;16.63;100.00;100594.41;2623217;54;20134;-57